Isuzu Maru — JD3515 — position and weather

sailwx.info

Track history (hours):
 
Tides and Currents Weather Stations Pressure Air Temp Water Temp Dewpoint Dewpoint Depression Visibility Wind Speed Wind Dir Waves Ship Positions

Isuzu Maru

Last reported at 2018-May-16 02:36 UTC. Time now 2018-May-20 15:53 UTC.
Position N 34°35' E 134°14'.

Length 74 m; draft 4.5 m.

Type: Tanker. MMSI: 431004619.

Date/timePositionNaut miles runAvg speedWind from/ knotsBaromVisibWave heightAir tempDewpointWater temp
2018-May-16 02:36N 34°35' E 134°14'1313.5
2018-May-16 01:39N 34°41' E 134°27'613.7
2018-May-16 01:11N 34°43' E 134°35'4 0.2
2018-May-15 08:07N 34°45' E 134°39'1 8.5
2018-May-15 08:00N 34°44' E 134°39'612.9
2018-May-15 07:30N 34°43' E 134°31'8912.8
2018-May-15 00:33N 34°07' E 132°53'5 1.3
2018-May-14 20:55N 34°03' E 132°50'511.3
2018-May-14 20:30N 34°00' E 132°45'612.2
2018-May-14 19:59N 33°56' E 132°40'612.5
2018-May-14 19:30N 33°51' E 132°35'812.6
2018-May-14 18:50N 33°47' E 132°27'512.6
2018-May-14 18:28N 33°45' E 132°22'712.7
2018-May-14 17:57N 33°43' E 132°14'612.7
2018-May-14 17:30N 33°41' E 132°07'713.1
2018-May-14 17:00N 33°42' E 131°60'713.8
2018-May-14 16:31N 33°43' E 131°52'714.5
2018-May-14 16:00N 33°45' E 131°43'714.7
2018-May-14 15:30N 33°47' E 131°35'714.3
2018-May-14 15:00N 33°49' E 131°26'714.1
2018-May-14 14:30N 33°50' E 131°18'713.9
2018-May-14 14:00N 33°52' E 131°10'713.7
2018-May-14 13:30N 33°56' E 131°03'510.0
2018-May-14 13:00N 33°58' E 130°58'4 8.1
2018-May-14 12:30N 33°54' E 130°55'5 9.1
2018-May-14 12:00N 33°57' E 130°51'612.8
2018-May-14 11:30N 33°58' E 130°43'713.5
2018-May-14 11:00N 33°57' E 130°35'613.0
2018-May-14 10:30N 33°54' E 130°28'713.3
2018-May-14 10:00N 33°49' E 130°22'613.1
2018-May-14 09:30N 33°45' E 130°16'712.8
2018-May-14 09:00N 33°41' E 130°10'612.7
2018-May-14 08:30N 33°37' E 130°04'612.8
2018-May-14 08:00N 33°35' E 129°57'611.7
2018-May-14 07:28N 33°33' E 129°49'2 0.1
2018-May-12 22:48N 33°35' E 129°48'412.0
2018-May-12 22:26N 33°38' E 129°52'612.3
2018-May-12 21:59N 33°42' E 129°57'612.5
2018-May-12 21:30N 33°45' E 130°03'612.5
2018-May-12 21:00N 33°48' E 130°10'612.8
2018-May-12 20:30N 33°51' E 130°16'612.7
2018-May-12 20:00N 33°55' E 130°23'713.0
2018-May-12 19:30N 33°57' E 130°30'613.0
2018-May-12 19:00N 33°58' E 130°38'613.0
2018-May-12 18:30N 33°58' E 130°46'611.7
2018-May-12 18:00N 33°56' E 130°53'3 6.2
2018-May-12 17:30N 33°57' E 130°56'4 8.5
2018-May-12 17:00N 33°59' E 131°01'612.4
2018-May-12 16:30N 33°55' E 131°07'612.4
2018-May-12 16:00N 33°52' E 131°13'612.7
2018-May-12 15:30N 33°51' E 131°21'612.2
2018-May-12 15:00N 33°50' E 131°28'612.2
2018-May-12 14:30N 33°48' E 131°35'612.1
2018-May-12 14:00N 33°47' E 131°42'612.1
2018-May-12 13:30N 33°45' E 131°49'612.1
2018-May-12 12:59N 33°44' E 131°57'1112.5
2018-May-12 12:04N 33°43' E 132°11'212.6
2018-May-12 11:55N 33°43' E 132°13'912.6
2018-May-12 11:13N 33°46' E 132°23'412.3
2018-May-12 10:51N 33°48' E 132°28'512.4
2018-May-12 10:29N 33°50' E 132°32'612.1
2018-May-12 09:59N 33°55' E 132°37'611.0
2018-May-12 09:25N 33°59' E 132°43'7 0.4
2018-May-11 14:46N 34°03' E 132°50'412.4
2018-May-11 14:29N 34°01' E 132°46'612.3
2018-May-11 14:00N 33°57' E 132°42'612.5
2018-May-11 13:29N 33°52' E 132°36'812.9
2018-May-11 12:54N 33°47' E 132°29'512.8
2018-May-11 12:29N 33°44' E 132°25'713.1
2018-May-11 11:59N 33°39' E 132°19'813.4
2018-May-11 11:23N 33°33' E 132°13'513.5
2018-May-11 11:00N 33°29' E 132°08'713.7
2018-May-11 10:30N 33°24' E 132°03'611.7
2018-May-11 09:57N 33°18' E 132°00'3 0.2
2018-May-10 12:41N 33°15' E 132°01'414.0
2018-May-10 12:25N 33°18' E 131°60'2212.6
2018-May-10 10:42N 33°35' E 132°15'313.2
2018-May-10 10:30N 33°37' E 132°18'813.0
2018-May-10 09:55N 33°43' E 132°24'912.7
2018-May-10 09:12N 33°49' E 132°32'312.3
2018-May-10 08:59N 33°51' E 132°34'612.4
2018-May-10 08:30N 33°55' E 132°39'611.7
2018-May-10 07:59N 33°60' E 132°44'2 0.1
2018-May-09 12:08N 34°01' E 132°46'212.4
2018-May-09 12:00N 33°60' E 132°45'612.3
2018-May-09 11:30N 33°55' E 132°40'1012.7
2018-May-09 10:44N 33°51' E 132°29'413.2
2018-May-09 10:24N 33°50' E 132°24'513.5
2018-May-09 10:00N 33°50' E 132°17'713.0
2018-May-09 09:27N 33°48' E 132°09'813.0
2018-May-09 08:51N 33°45' E 131°60'513.6
2018-May-09 08:29N 33°46' E 131°54'714.2
2018-May-09 08:01N 33°47' E 131°46'714.2
2018-May-09 07:31N 33°48' E 131°38'713.8
2018-May-09 07:00N 33°50' E 131°29'713.6
2018-May-09 06:30N 33°51' E 131°21'713.2
2018-May-09 06:00N 33°52' E 131°14'713.3
2018-May-09 05:30N 33°56' E 131°07'713.1
2018-May-09 05:01N 33°58' E 130°60'612.7
2018-May-09 04:30N 33°54' E 130°54'1 1.1
2018-May-09 04:00N 33°53' E 130°54'0 0.0
2018-May-09 03:30N 33°53' E 130°54'0 0.0
2018-May-09 03:00N 33°53' E 130°54'0 0.0
2018-May-09 02:29N 33°53' E 130°54'0 0.0
2018-May-09 02:00N 33°53' E 130°54'0 0.0
2018-May-09 01:30N 33°53' E 130°54'0 0.0
2018-May-09 01:01N 33°53' E 130°54'0 0.0
2018-May-09 00:31N 33°53' E 130°54'1 2.3
2018-May-09 00:01N 33°54' E 130°55'510.8
2018-May-08 23:30N 33°58' E 130°59'3 5.8
2018-May-08 23:01N 33°59' E 131°02'0 0.0
2018-May-08 22:30N 33°59' E 131°02'0 0.0
2018-May-08 22:00N 33°59' E 131°02'0 0.0
2018-May-08 21:30N 33°59' E 131°02'0 0.0
2018-May-08 21:00N 33°59' E 131°02'0 0.0
2018-May-08 20:30N 33°59' E 131°02'0 0.0
2018-May-08 20:00N 33°59' E 131°02'0 0.0
2018-May-08 19:30N 33°59' E 131°02'0 0.0
2018-May-08 19:00N 33°59' E 131°02'0 0.0
2018-May-08 18:30N 33°59' E 131°02'0 0.0
2018-May-08 18:00N 33°59' E 131°02'0 0.0
2018-May-08 17:30N 33°59' E 131°02'0 0.0
2018-May-08 17:00N 33°59' E 131°02'0 0.0
2018-May-08 16:30N 33°59' E 131°02'0 0.0
2018-May-08 16:00N 33°59' E 131°02'0 0.1
2018-May-08 15:30N 33°59' E 131°02'0 0.0
2018-May-08 15:00N 33°59' E 131°02'0 0.0
2018-May-08 14:30N 33°59' E 131°02'0 0.0
2018-May-08 13:48N 33°59' E 131°02'0 0.0
2018-May-08 13:30N 33°59' E 131°02'0 0.0
2018-May-08 13:00N 33°59' E 131°02'0 0.0
2018-May-08 12:30N 33°59' E 131°02'0 0.0
2018-May-08 12:00N 33°59' E 131°02'0 0.0
2018-May-08 11:30N 33°59' E 131°02'0 0.1
2018-May-08 11:00N 33°59' E 131°02'0 0.0
2018-May-08 10:30N 33°59' E 131°02'0 0.0
2018-May-08 10:00N 33°59' E 131°02'0 0.0
2018-May-08 09:27N 33°59' E 131°02'0 0.0
2018-May-08 09:00N 33°59' E 131°02'0 0.0
2018-May-08 08:30N 33°59' E 131°02'0 0.0
2018-May-08 08:00N 33°59' E 131°02'0 0.0
2018-May-08 07:30N 33°59' E 131°02'0 0.0
2018-May-08 07:00N 33°59' E 131°02'0 0.0
2018-May-08 06:30N 33°59' E 131°02'0 0.0
2018-May-08 06:00N 33°59' E 131°02'0 0.0
2018-May-08 05:30N 33°59' E 131°02'0 0.1
2018-May-08 05:00N 33°59' E 131°02'0 0.0
2018-May-08 04:30N 33°59' E 131°02'0 0.0
2018-May-08 04:00N 33°59' E 131°02'0 0.1
2018-May-08 03:30N 33°59' E 131°02'0 0.0
2018-May-08 03:00N 33°59' E 131°02'0 0.0
2018-May-08 02:30N 33°59' E 131°02'0 0.0
2018-May-08 02:00N 33°59' E 131°02'0 0.0
2018-May-08 01:30N 33°59' E 131°02'0 0.0
2018-May-08 01:00N 33°59' E 131°02'0 0.0
2018-May-08 00:30N 33°59' E 131°02'0 0.0
2018-May-08 00:00N 33°59' E 131°02'0 0.0
2018-May-07 23:30N 33°59' E 131°02'0 0.0
2018-May-07 23:00N 33°59' E 131°02'1 2.0
2018-May-07 22:31N 33°59' E 131°03'612.5
2018-May-07 22:00N 33°54' E 131°08'612.8
2018-May-07 21:31N 33°52' E 131°15'713.0
2018-May-07 21:00N 33°50' E 131°23'713.0
2018-May-07 20:29N 33°48' E 131°31'612.9
2018-May-07 20:00N 33°47' E 131°38'612.8
2018-May-07 19:30N 33°46' E 131°46'612.8
2018-May-07 19:00N 33°44' E 131°53'1412.6
2018-May-07 17:53N 33°42' E 132°10'512.8
2018-May-07 17:29N 33°44' E 132°16'612.7
2018-May-07 16:59N 33°46' E 132°23'612.4
2018-May-07 16:28N 33°49' E 132°30'612.3
2018-May-07 15:59N 33°53' E 132°35'611.9
2018-May-07 15:30N 33°57' E 132°41'8811.3
2018-May-07 07:42N 34°25' E 134°22'312.9
2018-May-07 07:29N 34°26' E 134°25'613.2
2018-May-07 07:00N 34°29' E 134°32'713.0
2018-May-07 06:30N 34°31' E 134°40'713.2
2018-May-07 06:01N 34°34' E 134°47'713.6
2018-May-07 05:30N 34°36' E 134°55'613.0
2018-May-07 05:00N 34°37' E 135°02'713.1
2018-May-07 04:30N 34°36' E 135°10'713.2
2018-May-07 04:01N 34°36' E 135°18'611.7
2018-May-07 03:30N 34°35' E 135°25'1 1.5
2018-May-07 03:00N 34°34' E 135°26'0 0.0
2018-May-07 02:30N 34°34' E 135°26'0 0.0
2018-May-07 02:00N 34°34' E 135°26'0 0.0
2018-May-07 01:30N 34°34' E 135°26'0 0.0
2018-May-07 00:57N 34°34' E 135°26'0 0.0
2018-May-07 00:30N 34°34' E 135°26'0 0.0
2018-May-07 00:00N 34°34' E 135°26'0 0.0
2018-May-06 23:30N 34°34' E 135°26'0 0.0
2018-May-06 23:00N 34°34' E 135°26'2 4.4
2018-May-06 22:30N 34°36' E 135°24'1 1.9
2018-May-06 21:58N 34°36' E 135°23'0 0.0
2018-May-06 21:28N 34°36' E 135°23'0 0.0
2018-May-06 20:58N 34°36' E 135°23'0 0.1
2018-May-06 20:30N 34°36' E 135°23'0 0.0
2018-May-06 20:00N 34°36' E 135°23'0 0.0
2018-May-06 19:30N 34°36' E 135°23'0 0.0
2018-May-06 19:00N 34°36' E 135°23'0 0.0
2018-May-06 18:30N 34°36' E 135°23'0 0.0
2018-May-06 18:00N 34°36' E 135°23'0 0.0
2018-May-06 17:30N 34°36' E 135°23'0 0.0
2018-May-06 17:00N 34°36' E 135°23'0 0.0
2018-May-06 16:29N 34°36' E 135°23'0 0.0
2018-May-06 16:00N 34°36' E 135°23'0 0.0
2018-May-06 15:30N 34°36' E 135°23'0 0.0
2018-May-06 15:00N 34°36' E 135°23'0 0.0
2018-May-06 14:30N 34°36' E 135°23'0 0.1
2018-May-06 14:00N 34°36' E 135°23'0 0.0
2018-May-06 13:30N 34°36' E 135°23'0 0.0
2018-May-06 13:00N 34°36' E 135°23'0 0.0
2018-May-06 12:30N 34°36' E 135°23'0 0.0
2018-May-06 12:00N 34°36' E 135°23'0 0.0
2018-May-06 11:31N 34°36' E 135°23'0 0.0
2018-May-06 11:00N 34°36' E 135°23'0 0.0
2018-May-06 10:30N 34°36' E 135°23'0 0.0
2018-May-06 10:00N 34°36' E 135°23'0 0.0
2018-May-06 09:30N 34°36' E 135°23'0 0.0
2018-May-06 09:00N 34°36' E 135°23'0 0.0
2018-May-06 08:30N 34°36' E 135°23'0 0.0
2018-May-06 08:00N 34°36' E 135°23'0 0.0
2018-May-06 07:31N 34°36' E 135°23'0 0.0
2018-May-06 07:00N 34°36' E 135°23'0 0.0
2018-May-06 06:30N 34°36' E 135°23'0 0.0
2018-May-06 06:00N 34°36' E 135°23'0 0.0
2018-May-06 05:30N 34°36' E 135°23'0 0.0
2018-May-06 05:00N 34°36' E 135°23'0 0.0
2018-May-06 04:30N 34°36' E 135°23'1 1.5
2018-May-06 04:00N 34°36' E 135°22'713.3
2018-May-06 03:30N 34°35' E 135°14'713.9
2018-May-06 03:00N 34°35' E 135°06'  
Track history (hours):
 
Tides and Currents Weather Stations Pressure Air Temp Water Temp Dewpoint Dewpoint Depression Visibility Wind Speed Wind Dir Waves Ship Positions

Isuzu Maru

Last reported at 2018-May-16 02:36 UTC. Time now 2018-May-20 15:53 UTC.
Position N 34°35' E 134°14'.

Length 74 m; draft 4.5 m.

Type: Tanker. MMSI: 431004619.

Date/timePositionNaut miles runAvg speedWind from/ knotsBaromVisibWave heightAir tempDewpointWater temp
2018-May-16 02:36N 34°35' E 134°14'1313.5
2018-May-16 01:39N 34°41' E 134°27'613.7
2018-May-16 01:11N 34°43' E 134°35'4 0.2
2018-May-15 08:07N 34°45' E 134°39'1 8.5
2018-May-15 08:00N 34°44' E 134°39'612.9
2018-May-15 07:30N 34°43' E 134°31'8912.8
2018-May-15 00:33N 34°07' E 132°53'5 1.3
2018-May-14 20:55N 34°03' E 132°50'511.3
2018-May-14 20:30N 34°00' E 132°45'612.2
2018-May-14 19:59N 33°56' E 132°40'612.5
2018-May-14 19:30N 33°51' E 132°35'812.6
2018-May-14 18:50N 33°47' E 132°27'512.6
2018-May-14 18:28N 33°45' E 132°22'712.7
2018-May-14 17:57N 33°43' E 132°14'612.7
2018-May-14 17:30N 33°41' E 132°07'713.1
2018-May-14 17:00N 33°42' E 131°60'713.8
2018-May-14 16:31N 33°43' E 131°52'714.5
2018-May-14 16:00N 33°45' E 131°43'714.7
2018-May-14 15:30N 33°47' E 131°35'714.3
2018-May-14 15:00N 33°49' E 131°26'714.1
2018-May-14 14:30N 33°50' E 131°18'713.9
2018-May-14 14:00N 33°52' E 131°10'713.7
2018-May-14 13:30N 33°56' E 131°03'510.0
2018-May-14 13:00N 33°58' E 130°58'4 8.1
2018-May-14 12:30N 33°54' E 130°55'5 9.1
2018-May-14 12:00N 33°57' E 130°51'612.8
2018-May-14 11:30N 33°58' E 130°43'713.5
2018-May-14 11:00N 33°57' E 130°35'613.0
2018-May-14 10:30N 33°54' E 130°28'713.3
2018-May-14 10:00N 33°49' E 130°22'613.1
2018-May-14 09:30N 33°45' E 130°16'712.8
2018-May-14 09:00N 33°41' E 130°10'612.7
2018-May-14 08:30N 33°37' E 130°04'612.8
2018-May-14 08:00N 33°35' E 129°57'611.7
2018-May-14 07:28N 33°33' E 129°49'2 0.1
2018-May-12 22:48N 33°35' E 129°48'412.0
2018-May-12 22:26N 33°38' E 129°52'612.3
2018-May-12 21:59N 33°42' E 129°57'612.5
2018-May-12 21:30N 33°45' E 130°03'612.5
2018-May-12 21:00N 33°48' E 130°10'612.8
2018-May-12 20:30N 33°51' E 130°16'612.7
2018-May-12 20:00N 33°55' E 130°23'713.0
2018-May-12 19:30N 33°57' E 130°30'613.0
2018-May-12 19:00N 33°58' E 130°38'613.0
2018-May-12 18:30N 33°58' E 130°46'611.7
2018-May-12 18:00N 33°56' E 130°53'3 6.2
2018-May-12 17:30N 33°57' E 130°56'4 8.5
2018-May-12 17:00N 33°59' E 131°01'612.4
2018-May-12 16:30N 33°55' E 131°07'612.4
2018-May-12 16:00N 33°52' E 131°13'612.7
2018-May-12 15:30N 33°51' E 131°21'612.2
2018-May-12 15:00N 33°50' E 131°28'612.2
2018-May-12 14:30N 33°48' E 131°35'612.1
2018-May-12 14:00N 33°47' E 131°42'612.1
2018-May-12 13:30N 33°45' E 131°49'612.1
2018-May-12 12:59N 33°44' E 131°57'1112.5
2018-May-12 12:04N 33°43' E 132°11'212.6
2018-May-12 11:55N 33°43' E 132°13'912.6
2018-May-12 11:13N 33°46' E 132°23'412.3
2018-May-12 10:51N 33°48' E 132°28'512.4
2018-May-12 10:29N 33°50' E 132°32'612.1
2018-May-12 09:59N 33°55' E 132°37'611.0
2018-May-12 09:25N 33°59' E 132°43'7 0.4
2018-May-11 14:46N 34°03' E 132°50'412.4
2018-May-11 14:29N 34°01' E 132°46'612.3
2018-May-11 14:00N 33°57' E 132°42'612.5
2018-May-11 13:29N 33°52' E 132°36'812.9
2018-May-11 12:54N 33°47' E 132°29'512.8
2018-May-11 12:29N 33°44' E 132°25'713.1
2018-May-11 11:59N 33°39' E 132°19'813.4
2018-May-11 11:23N 33°33' E 132°13'513.5
2018-May-11 11:00N 33°29' E 132°08'713.7
2018-May-11 10:30N 33°24' E 132°03'611.7
2018-May-11 09:57N 33°18' E 132°00'3 0.2
2018-May-10 12:41N 33°15' E 132°01'414.0
2018-May-10 12:25N 33°18' E 131°60'2212.6
2018-May-10 10:42N 33°35' E 132°15'313.2
2018-May-10 10:30N 33°37' E 132°18'813.0
2018-May-10 09:55N 33°43' E 132°24'912.7
2018-May-10 09:12N 33°49' E 132°32'312.3
2018-May-10 08:59N 33°51' E 132°34'612.4
2018-May-10 08:30N 33°55' E 132°39'611.7
2018-May-10 07:59N 33°60' E 132°44'2 0.1
2018-May-09 12:08N 34°01' E 132°46'212.4
2018-May-09 12:00N 33°60' E 132°45'612.3
2018-May-09 11:30N 33°55' E 132°40'1012.7
2018-May-09 10:44N 33°51' E 132°29'413.2
2018-May-09 10:24N 33°50' E 132°24'513.5
2018-May-09 10:00N 33°50' E 132°17'713.0
2018-May-09 09:27N 33°48' E 132°09'813.0
2018-May-09 08:51N 33°45' E 131°60'513.6
2018-May-09 08:29N 33°46' E 131°54'714.2
2018-May-09 08:01N 33°47' E 131°46'714.2
2018-May-09 07:31N 33°48' E 131°38'713.8
2018-May-09 07:00N 33°50' E 131°29'713.6
2018-May-09 06:30N 33°51' E 131°21'713.2
2018-May-09 06:00N 33°52' E 131°14'713.3
2018-May-09 05:30N 33°56' E 131°07'713.1
2018-May-09 05:01N 33°58' E 130°60'612.7
2018-May-09 04:30N 33°54' E 130°54'1 1.1
2018-May-09 04:00N 33°53' E 130°54'0 0.0
2018-May-09 03:30N 33°53' E 130°54'0 0.0
2018-May-09 03:00N 33°53' E 130°54'0 0.0
2018-May-09 02:29N 33°53' E 130°54'0 0.0
2018-May-09 02:00N 33°53' E 130°54'0 0.0
2018-May-09 01:30N 33°53' E 130°54'0 0.0
2018-May-09 01:01N 33°53' E 130°54'0 0.0
2018-May-09 00:31N 33°53' E 130°54'1 2.3
2018-May-09 00:01N 33°54' E 130°55'510.8
2018-May-08 23:30N 33°58' E 130°59'3 5.8
2018-May-08 23:01N 33°59' E 131°02'0 0.0
2018-May-08 22:30N 33°59' E 131°02'0 0.0
2018-May-08 22:00N 33°59' E 131°02'0 0.0
2018-May-08 21:30N 33°59' E 131°02'0 0.0
2018-May-08 21:00N 33°59' E 131°02'0 0.0
2018-May-08 20:30N 33°59' E 131°02'0 0.0
2018-May-08 20:00N 33°59' E 131°02'0 0.0
2018-May-08 19:30N 33°59' E 131°02'0 0.0
2018-May-08 19:00N 33°59' E 131°02'0 0.0
2018-May-08 18:30N 33°59' E 131°02'0 0.0
2018-May-08 18:00N 33°59' E 131°02'0 0.0
2018-May-08 17:30N 33°59' E 131°02'0 0.0
2018-May-08 17:00N 33°59' E 131°02'0 0.0
2018-May-08 16:30N 33°59' E 131°02'0 0.0
2018-May-08 16:00N 33°59' E 131°02'0 0.1
2018-May-08 15:30N 33°59' E 131°02'0 0.0
2018-May-08 15:00N 33°59' E 131°02'0 0.0
2018-May-08 14:30N 33°59' E 131°02'0 0.0
2018-May-08 13:48N 33°59' E 131°02'0 0.0
2018-May-08 13:30N 33°59' E 131°02'0 0.0
2018-May-08 13:00N 33°59' E 131°02'0 0.0
2018-May-08 12:30N 33°59' E 131°02'0 0.0
2018-May-08 12:00N 33°59' E 131°02'0 0.0
2018-May-08 11:30N 33°59' E 131°02'0 0.1
2018-May-08 11:00N 33°59' E 131°02'0 0.0
2018-May-08 10:30N 33°59' E 131°02'0 0.0
2018-May-08 10:00N 33°59' E 131°02'0 0.0
2018-May-08 09:27N 33°59' E 131°02'0 0.0
2018-May-08 09:00N 33°59' E 131°02'0 0.0
2018-May-08 08:30N 33°59' E 131°02'0 0.0
2018-May-08 08:00N 33°59' E 131°02'0 0.0
2018-May-08 07:30N 33°59' E 131°02'0 0.0
2018-May-08 07:00N 33°59' E 131°02'0 0.0
2018-May-08 06:30N 33°59' E 131°02'0 0.0
2018-May-08 06:00N 33°59' E 131°02'0 0.0
2018-May-08 05:30N 33°59' E 131°02'0 0.1
2018-May-08 05:00N 33°59' E 131°02'0 0.0
2018-May-08 04:30N 33°59' E 131°02'0 0.0
2018-May-08 04:00N 33°59' E 131°02'0 0.1
2018-May-08 03:30N 33°59' E 131°02'0 0.0
2018-May-08 03:00N 33°59' E 131°02'0 0.0
2018-May-08 02:30N 33°59' E 131°02'0 0.0
2018-May-08 02:00N 33°59' E 131°02'0 0.0
2018-May-08 01:30N 33°59' E 131°02'0 0.0
2018-May-08 01:00N 33°59' E 131°02'0 0.0
2018-May-08 00:30N 33°59' E 131°02'0 0.0
2018-May-08 00:00N 33°59' E 131°02'0 0.0
2018-May-07 23:30N 33°59' E 131°02'0 0.0
2018-May-07 23:00N 33°59' E 131°02'1 2.0
2018-May-07 22:31N 33°59' E 131°03'612.5
2018-May-07 22:00N 33°54' E 131°08'612.8
2018-May-07 21:31N 33°52' E 131°15'713.0
2018-May-07 21:00N 33°50' E 131°23'713.0
2018-May-07 20:29N 33°48' E 131°31'612.9
2018-May-07 20:00N 33°47' E 131°38'612.8
2018-May-07 19:30N 33°46' E 131°46'612.8
2018-May-07 19:00N 33°44' E 131°53'1412.6
2018-May-07 17:53N 33°42' E 132°10'512.8
2018-May-07 17:29N 33°44' E 132°16'612.7
2018-May-07 16:59N 33°46' E 132°23'612.4
2018-May-07 16:28N 33°49' E 132°30'612.3
2018-May-07 15:59N 33°53' E 132°35'611.9
2018-May-07 15:30N 33°57' E 132°41'8811.3
2018-May-07 07:42N 34°25' E 134°22'312.9
2018-May-07 07:29N 34°26' E 134°25'613.2
2018-May-07 07:00N 34°29' E 134°32'713.0
2018-May-07 06:30N 34°31' E 134°40'713.2
2018-May-07 06:01N 34°34' E 134°47'713.6
2018-May-07 05:30N 34°36' E 134°55'613.0
2018-May-07 05:00N 34°37' E 135°02'713.1
2018-May-07 04:30N 34°36' E 135°10'713.2
2018-May-07 04:01N 34°36' E 135°18'611.7
2018-May-07 03:30N 34°35' E 135°25'1 1.5
2018-May-07 03:00N 34°34' E 135°26'0 0.0
2018-May-07 02:30N 34°34' E 135°26'0 0.0
2018-May-07 02:00N 34°34' E 135°26'0 0.0
2018-May-07 01:30N 34°34' E 135°26'0 0.0
2018-May-07 00:57N 34°34' E 135°26'0 0.0
2018-May-07 00:30N 34°34' E 135°26'0 0.0
2018-May-07 00:00N 34°34' E 135°26'0 0.0
2018-May-06 23:30N 34°34' E 135°26'0 0.0
2018-May-06 23:00N 34°34' E 135°26'2 4.4
2018-May-06 22:30N 34°36' E 135°24'1 1.9
2018-May-06 21:58N 34°36' E 135°23'0 0.0
2018-May-06 21:28N 34°36' E 135°23'0 0.0
2018-May-06 20:58N 34°36' E 135°23'0 0.1
2018-May-06 20:30N 34°36' E 135°23'0 0.0
2018-May-06 20:00N 34°36' E 135°23'0 0.0
2018-May-06 19:30N 34°36' E 135°23'0 0.0
2018-May-06 19:00N 34°36' E 135°23'0 0.0
2018-May-06 18:30N 34°36' E 135°23'0 0.0
2018-May-06 18:00N 34°36' E 135°23'0 0.0
2018-May-06 17:30N 34°36' E 135°23'0 0.0
2018-May-06 17:00N 34°36' E 135°23'0 0.0
2018-May-06 16:29N 34°36' E 135°23'0 0.0
2018-May-06 16:00N 34°36' E 135°23'0 0.0
2018-May-06 15:30N 34°36' E 135°23'0 0.0
2018-May-06 15:00N 34°36' E 135°23'0 0.0
2018-May-06 14:30N 34°36' E 135°23'0 0.1
2018-May-06 14:00N 34°36' E 135°23'0 0.0
2018-May-06 13:30N 34°36' E 135°23'0 0.0
2018-May-06 13:00N 34°36' E 135°23'0 0.0
2018-May-06 12:30N 34°36' E 135°23'0 0.0
2018-May-06 12:00N 34°36' E 135°23'0 0.0
2018-May-06 11:31N 34°36' E 135°23'0 0.0
2018-May-06 11:00N 34°36' E 135°23'0 0.0
2018-May-06 10:30N 34°36' E 135°23'0 0.0
2018-May-06 10:00N 34°36' E 135°23'0 0.0
2018-May-06 09:30N 34°36' E 135°23'0 0.0
2018-May-06 09:00N 34°36' E 135°23'0 0.0
2018-May-06 08:30N 34°36' E 135°23'0 0.0
2018-May-06 08:00N 34°36' E 135°23'0 0.0
2018-May-06 07:31N 34°36' E 135°23'0 0.0
2018-May-06 07:00N 34°36' E 135°23'0 0.0
2018-May-06 06:30N 34°36' E 135°23'0 0.0
2018-May-06 06:00N 34°36' E 135°23'0 0.0
2018-May-06 05:30N 34°36' E 135°23'0 0.0
2018-May-06 05:00N 34°36' E 135°23'0 0.0
2018-May-06 04:30N 34°36' E 135°23'1 1.5
2018-May-06 04:00N 34°36' E 135°22'713.3
2018-May-06 03:30N 34°35' E 135°14'713.9
2018-May-06 03:00N 34°35' E 135°06'  

Dump ship's entire track history